createdAt,value
2018-03-23T00:01:57.168Z,1.58
2018-03-23T00:04:24.522Z,1.58
2018-03-23T00:06:51.876Z,1.56
2018-03-23T00:09:19.251Z,1.61
2018-03-23T00:11:46.619Z,1.60
2018-03-23T00:14:13.955Z,1.65
2018-03-23T00:16:41.546Z,1.63
2018-03-23T00:19:08.932Z,1.66
2018-03-23T00:21:37.016Z,1.67
2018-03-23T00:24:04.366Z,1.65
2018-03-23T00:26:31.704Z,1.68
2018-03-23T00:28:59.780Z,1.71
2018-03-23T00:31:27.825Z,1.62
2018-03-23T00:33:55.184Z,1.60
2018-03-23T00:36:22.509Z,1.57
2018-03-23T00:38:49.867Z,1.61
2018-03-23T00:41:17.210Z,1.59
2018-03-23T00:43:44.599Z,1.58
2018-03-23T00:46:11.914Z,1.56
2018-03-23T00:48:39.844Z,1.54
2018-03-23T00:51:07.821Z,1.65
2018-03-23T00:53:35.188Z,1.61
2018-03-23T00:56:02.569Z,1.60
2018-03-23T00:58:29.891Z,1.61
2018-03-23T01:00:57.252Z,1.59
2018-03-23T01:03:24.627Z,1.63
2018-03-23T01:05:52.006Z,1.62
2018-03-23T01:08:19.337Z,1.61
2018-03-23T01:10:46.730Z,1.67
2018-03-23T01:13:14.115Z,1.63
2018-03-23T01:15:41.470Z,1.60
2018-03-23T01:18:08.854Z,1.59
2018-03-23T01:20:36.323Z,1.61
2018-03-23T01:23:03.648Z,1.62
2018-03-23T01:25:31.233Z,1.71
2018-03-23T01:27:58.543Z,1.66
2018-03-23T01:30:25.851Z,1.58
2018-03-23T01:32:53.251Z,1.63
2018-03-23T01:35:20.558Z,1.64
2018-03-23T01:37:48.822Z,1.61
2018-03-23T01:40:16.179Z,1.60
2018-03-23T01:42:43.554Z,1.59
2018-03-23T01:45:10.881Z,1.65
2018-03-23T01:47:38.248Z,1.65
2018-03-23T01:50:05.677Z,1.63
2018-03-23T01:52:33.926Z,1.69
2018-03-23T01:55:02.144Z,1.71
2018-03-23T01:57:29.537Z,1.71
2018-03-23T01:59:56.919Z,1.67
2018-03-23T02:02:24.213Z,1.68
2018-03-23T02:04:51.598Z,1.72
2018-03-23T02:07:18.932Z,1.79
2018-03-23T02:09:46.275Z,1.75
2018-03-23T02:12:14.584Z,1.74
2018-03-23T02:14:41.888Z,1.74
2018-03-23T02:17:09.315Z,1.76
2018-03-23T02:19:36.759Z,1.72
2018-03-23T02:22:04.203Z,1.68
2018-03-23T02:24:31.580Z,1.64
2018-03-23T02:26:59.452Z,1.67
2018-03-23T02:29:26.785Z,1.73
2018-03-23T02:31:54.133Z,1.69
2018-03-23T02:34:22.374Z,1.69
2018-03-23T02:36:49.698Z,1.66
2018-03-23T02:39:17.088Z,1.54
2018-03-23T02:41:44.471Z,1.56
2018-03-23T02:44:11.858Z,1.65
2018-03-23T02:46:40.087Z,1.63
2018-03-23T02:49:07.434Z,1.63
2018-03-23T02:51:34.787Z,1.70
2018-03-23T02:54:02.109Z,1.73
2018-03-23T02:56:29.543Z,1.65
2018-03-23T02:58:56.929Z,1.66
2018-03-23T03:01:24.274Z,1.69
2018-03-23T03:03:52.000Z,1.73
2018-03-23T03:06:20.979Z,1.74
2018-03-23T03:08:48.312Z,1.73
2018-03-23T03:11:15.735Z,1.66
2018-03-23T03:13:43.052Z,1.67
2018-03-23T03:16:11.134Z,1.68
2018-03-23T03:18:40.284Z,1.67
2018-03-23T03:21:07.802Z,1.68
2018-03-23T03:23:35.219Z,1.59
2018-03-23T03:26:02.603Z,1.63
2018-03-23T03:28:30.747Z,1.62
2018-03-23T03:30:58.084Z,1.64
2018-03-23T03:33:25.402Z,1.65
2018-03-23T03:35:52.750Z,1.70
2018-03-23T03:38:20.181Z,1.72
2018-03-23T03:40:47.807Z,1.63
2018-03-23T03:43:15.142Z,1.66
2018-03-23T03:45:43.462Z,1.63
2018-03-23T03:48:10.787Z,1.63
2018-03-23T03:50:38.171Z,1.65
2018-03-23T03:53:05.529Z,1.67
2018-03-23T03:55:32.940Z,1.66
2018-03-23T03:58:00.303Z,1.68
2018-03-23T04:00:27.811Z,1.66
2018-03-23T04:02:55.142Z,1.73
2018-03-23T04:05:23.471Z,1.69
2018-03-23T04:07:50.774Z,1.67
2018-03-23T04:10:18.100Z,1.67
2018-03-23T04:12:45.443Z,1.71
2018-03-23T04:15:12.828Z,1.78
2018-03-23T04:17:40.140Z,1.78
2018-03-23T04:20:07.614Z,1.75
2018-03-23T04:22:34.974Z,1.67
2018-03-23T04:25:02.331Z,1.66
2018-03-23T04:27:29.691Z,1.71
2018-03-23T04:29:57.030Z,1.66
2018-03-23T04:32:24.357Z,1.70
2018-03-23T04:34:51.731Z,1.68
2018-03-23T04:37:19.073Z,1.65
2018-03-23T04:39:46.508Z,1.66
2018-03-23T04:42:13.803Z,1.72
2018-03-23T04:44:41.233Z,1.69
2018-03-23T04:47:08.666Z,1.76
2018-03-23T04:49:36.828Z,1.69
2018-03-23T04:52:04.190Z,1.68
2018-03-23T04:54:31.502Z,1.71
2018-03-23T04:56:58.866Z,1.72
2018-03-23T04:59:26.211Z,1.77
2018-03-23T05:01:53.550Z,1.75
2018-03-23T05:04:21.011Z,1.72
2018-03-23T05:06:48.348Z,1.74
2018-03-23T05:09:15.663Z,1.76
2018-03-23T05:11:42.986Z,1.77
2018-03-23T05:14:10.306Z,1.75
2018-03-23T05:16:37.676Z,1.73
2018-03-23T05:19:05.053Z,1.76
2018-03-23T05:21:32.405Z,1.76
2018-03-23T05:23:59.807Z,1.81
2018-03-23T05:26:27.883Z,1.84
2018-03-23T05:28:56.797Z,1.82
2018-03-23T05:31:24.146Z,1.87
2018-03-23T05:33:52.016Z,1.92
2018-03-23T05:36:19.365Z,1.89
2018-03-23T05:38:46.756Z,1.89
2018-03-23T05:41:14.944Z,1.89
2018-03-23T05:43:42.271Z,1.91
2018-03-23T05:46:09.650Z,1.99
2018-03-23T05:48:36.958Z,2.03
2018-03-23T05:51:04.378Z,2.05
2018-03-23T05:53:31.736Z,2.11
2018-03-23T05:55:59.083Z,2.12
2018-03-23T05:58:27.172Z,2.17
2018-03-23T06:00:54.557Z,2.17
2018-03-23T06:03:21.901Z,2.21
2018-03-23T06:05:50.094Z,2.30
2018-03-23T06:08:17.423Z,2.34
2018-03-23T06:10:44.876Z,2.47
2018-03-23T06:13:13.202Z,2.47
2018-03-23T06:15:40.519Z,2.35
2018-03-23T06:18:07.938Z,2.36
2018-03-23T06:20:35.274Z,2.31
2018-03-23T06:23:02.615Z,2.34
2018-03-23T06:25:30.001Z,2.32
2018-03-23T06:27:57.343Z,2.42
2018-03-23T06:30:24.939Z,2.48
2018-03-23T06:32:52.287Z,2.73
2018-03-23T06:35:20.377Z,2.90
2018-03-23T06:37:47.748Z,2.85
2018-03-23T06:40:15.119Z,3.04
2018-03-23T06:42:42.475Z,3.13
2018-03-23T06:45:09.838Z,3.36
2018-03-23T06:47:37.183Z,3.66
2018-03-23T06:50:04.746Z,3.75
2018-03-23T06:52:32.178Z,4.05
2018-03-23T06:54:59.555Z,4.33
2018-03-23T06:57:27.498Z,4.57
2018-03-23T06:59:54.835Z,4.79
2018-03-23T07:02:22.207Z,4.75
2018-03-23T07:04:49.570Z,4.66
2018-03-23T07:07:16.971Z,4.62
2018-03-23T07:09:44.280Z,4.37
2018-03-23T07:12:11.617Z,4.17
2018-03-23T07:14:38.930Z,3.92
2018-03-23T07:17:07.109Z,3.95
2018-03-23T07:19:34.468Z,3.98
2018-03-23T07:22:02.843Z,3.97
2018-03-23T07:24:30.168Z,4.02
2018-03-23T07:26:57.492Z,4.00
2018-03-23T07:29:24.839Z,4.09
2018-03-23T07:31:52.171Z,4.02
2018-03-23T07:34:19.510Z,4.20
2018-03-23T07:36:48.210Z,4.20
2018-03-23T07:39:15.570Z,4.29
2018-03-23T07:41:42.896Z,4.43
2018-03-23T07:44:10.399Z,4.62
2018-03-23T07:46:37.762Z,4.89
2018-03-23T07:49:05.152Z,5.38
2018-03-23T07:51:32.490Z,6.14
2018-03-23T07:53:59.845Z,6.32
2018-03-23T07:56:27.152Z,6.28
2018-03-23T07:58:54.455Z,6.15
2018-03-23T08:01:21.813Z,5.96
2018-03-23T08:03:49.201Z,5.90
2018-03-23T08:06:17.302Z,6.23
2018-03-23T08:08:45.416Z,6.38
2018-03-23T08:11:12.746Z,6.76
2018-03-23T08:13:40.052Z,7.01
2018-03-23T08:16:08.144Z,7.29
2018-03-23T08:18:35.518Z,7.55
2018-03-23T08:21:03.214Z,7.71
2018-03-23T08:23:30.532Z,8.14
2018-03-23T08:25:58.402Z,8.56
2018-03-23T08:28:25.795Z,8.86
2018-03-23T08:30:53.166Z,8.64
2018-03-23T08:33:20.470Z,8.51
2018-03-23T08:35:47.817Z,8.11
2018-03-23T08:38:15.276Z,8.36
2018-03-23T08:40:42.617Z,8.26
2018-03-23T08:43:10.462Z,8.29
2018-03-23T08:45:37.803Z,8.14
2018-03-23T08:48:05.817Z,8.00
2018-03-23T08:50:33.622Z,7.88
2018-03-23T08:53:00.946Z,7.92
2018-03-23T08:55:28.427Z,7.92
2018-03-23T08:57:55.958Z,7.96
2018-03-23T09:00:23.274Z,7.95
2018-03-23T09:02:51.378Z,7.80
2018-03-23T09:05:18.726Z,7.63
2018-03-23T09:07:46.038Z,7.39
2018-03-23T09:10:13.471Z,7.06
2018-03-23T09:12:40.816Z,7.18
2018-03-23T09:15:08.175Z,7.29
2018-03-23T09:17:35.556Z,7.47
2018-03-23T09:20:03.699Z,7.44
2018-03-23T09:22:32.090Z,7.17
2018-03-23T09:24:59.452Z,7.45
2018-03-23T09:27:28.966Z,7.53
2018-03-23T09:29:57.535Z,7.52
2018-03-23T09:32:24.855Z,7.53
2018-03-23T09:34:54.884Z,7.53
2018-03-23T09:37:22.223Z,7.55
2018-03-23T09:39:49.596Z,7.74
2018-03-23T09:42:16.793Z,7.56
2018-03-23T09:44:47.226Z,7.39
2018-03-23T09:47:15.412Z,7.55
2018-03-23T09:49:42.763Z,7.29
2018-03-23T09:52:10.165Z,7.55
2018-03-23T09:54:37.507Z,7.42
2018-03-23T09:57:04.853Z,7.86
2018-03-23T09:59:32.205Z,8.20
2018-03-23T10:01:59.538Z,8.15
2018-03-23T10:04:26.892Z,7.61
2018-03-23T10:06:56.609Z,7.49
2018-03-23T10:09:23.998Z,7.78
2018-03-23T10:11:51.405Z,7.83
2018-03-23T10:14:18.750Z,8.00
2018-03-23T10:16:46.127Z,8.12
2018-03-23T10:19:13.495Z,8.19
2018-03-23T10:21:40.846Z,8.16
2018-03-23T10:24:08.222Z,8.03
2018-03-23T10:26:35.619Z,8.04
2018-03-23T10:29:06.123Z,8.03
2018-03-23T10:31:33.440Z,8.07
2018-03-23T10:34:00.772Z,7.82
2018-03-23T10:36:30.395Z,7.70
2018-03-23T10:38:57.755Z,7.79
2018-03-23T10:41:25.163Z,8.02
2018-03-23T10:43:55.184Z,8.00
2018-03-23T10:46:23.271Z,8.08
2018-03-23T10:48:54.016Z,7.70
2018-03-23T10:51:21.367Z,7.45
2018-03-23T10:53:53.251Z,7.30
2018-03-23T10:56:20.667Z,7.31
2018-03-23T10:58:51.085Z,7.45
2018-03-23T11:03:47.991Z,7.29
2018-03-23T11:06:15.346Z,7.52
2018-03-23T11:08:45.834Z,7.75
2018-03-23T11:11:13.189Z,7.95
2018-03-23T11:13:40.634Z,7.99
2018-03-23T11:16:08.037Z,8.37
2018-03-23T11:18:35.458Z,8.61
2018-03-23T11:21:02.872Z,8.60
2018-03-23T11:23:30.214Z,8.55
2018-03-23T11:25:57.538Z,8.40
2018-03-23T11:28:25.142Z,8.41
2018-03-23T11:30:52.487Z,8.18
2018-03-23T11:33:20.027Z,8.01
2018-03-23T11:35:50.764Z,7.58
2018-03-23T11:38:18.216Z,7.60
2018-03-23T11:40:45.567Z,7.22
2018-03-23T11:43:16.257Z,7.23
2018-03-23T11:45:43.618Z,7.10
2018-03-23T11:48:10.956Z,7.00
2018-03-23T11:50:39.136Z,7.06
2018-03-23T11:53:07.285Z,6.96
2018-03-23T11:55:34.644Z,6.94
2018-03-23T11:58:02.419Z,6.95
2018-03-23T12:00:29.769Z,6.94
2018-03-23T12:02:57.258Z,7.09
2018-03-23T12:05:24.648Z,7.08
2018-03-23T12:07:51.997Z,7.11
2018-03-23T12:10:19.684Z,6.94
2018-03-23T12:12:47.042Z,7.04
2018-03-23T12:15:15.531Z,7.15
2018-03-23T12:17:42.919Z,7.26
2018-03-23T12:20:12.984Z,7.33
2018-03-23T12:22:41.465Z,7.36
2018-03-23T12:25:09.933Z,7.58
2018-03-23T12:27:39.953Z,7.51
2018-03-23T12:30:08.449Z,7.60
2018-03-23T12:32:36.912Z,7.57
2018-03-23T12:35:06.954Z,7.54
2018-03-23T12:37:35.411Z,7.50
2018-03-23T12:40:05.215Z,7.50
2018-03-23T12:42:33.673Z,7.36
2018-03-23T12:45:03.554Z,7.29
2018-03-23T12:47:32.081Z,7.23
2018-03-23T12:50:00.490Z,7.07
2018-03-23T12:52:30.054Z,7.22
2018-03-23T12:54:58.497Z,7.20
2018-03-23T12:57:26.970Z,7.20
2018-03-23T12:59:55.361Z,7.12
2018-03-23T13:02:23.822Z,7.13
2018-03-23T13:04:51.151Z,7.05
2018-03-23T13:07:18.480Z,6.96
2018-03-23T13:09:45.859Z,7.02
2018-03-23T13:12:17.198Z,6.97
2018-03-23T13:14:45.676Z,7.04
2018-03-23T13:17:14.167Z,7.09
2018-03-23T13:19:42.578Z,7.12
2018-03-23T13:22:11.883Z,7.28
2018-03-23T13:24:40.407Z,7.35
2018-03-23T13:27:08.860Z,7.39
2018-03-23T13:29:37.359Z,7.48
2018-03-23T13:32:05.749Z,7.49
2018-03-23T13:34:34.201Z,7.55
2018-03-23T13:37:02.638Z,7.48
2018-03-23T13:39:31.116Z,7.38
2018-03-23T13:41:59.545Z,7.25
2018-03-23T13:44:28.013Z,7.20
2018-03-23T13:46:56.453Z,7.18
2018-03-23T13:49:26.138Z,7.34
2018-03-23T13:51:54.658Z,7.34
2018-03-23T13:54:23.370Z,7.20
2018-03-23T13:56:53.089Z,7.30
2018-03-23T13:59:26.470Z,7.51
2018-03-23T14:01:53.955Z,7.49
2018-03-23T14:04:21.335Z,7.69
2018-03-23T14:06:48.752Z,7.56
2018-03-23T14:09:18.787Z,7.56
2018-03-23T14:11:47.318Z,7.42
2018-03-23T14:14:14.739Z,7.63
2018-03-23T14:16:42.169Z,7.84
2018-03-23T14:19:11.712Z,8.18
2018-03-23T14:21:39.058Z,8.07
2018-03-23T14:24:08.501Z,8.03
2018-03-23T14:26:36.877Z,7.81
2018-03-23T14:29:04.252Z,7.79
2018-03-23T14:31:34.134Z,7.84
2018-03-23T14:34:02.607Z,8.05
2018-03-23T14:36:31.260Z,8.34
2018-03-23T14:38:59.746Z,8.44
2018-03-23T14:41:28.618Z,8.40
2018-03-23T14:43:57.083Z,8.47
2018-03-23T14:46:25.489Z,8.20
2018-03-23T14:48:53.993Z,8.29
2018-03-23T14:51:22.478Z,8.13
2018-03-23T14:53:51.053Z,8.14
2018-03-23T14:56:18.546Z,8.22
2018-03-23T15:24:14.361Z,7.91
2018-03-23T15:26:41.756Z,7.87
2018-03-23T15:29:11.650Z,7.86
2018-03-23T15:31:41.389Z,7.93
2018-03-23T15:34:08.723Z,7.78
2018-03-23T15:36:38.841Z,7.87
2018-03-23T15:39:08.594Z,7.91
2018-03-23T15:41:37.088Z,7.91
2018-03-23T15:44:06.993Z,7.91
2018-03-23T15:46:37.072Z,7.87
2018-03-23T15:49:05.550Z,7.96
2018-03-23T15:51:34.042Z,7.86
2018-03-23T15:54:01.380Z,7.79
2018-03-23T15:56:31.013Z,7.72
2018-03-23T15:58:59.434Z,7.74
2018-03-23T16:01:27.830Z,7.68
2018-03-23T16:03:56.391Z,7.76
2018-03-23T16:06:23.747Z,7.72
2018-03-23T16:08:53.507Z,7.65
2018-03-23T16:11:21.965Z,7.55
2018-03-23T16:13:50.397Z,7.55
2018-03-23T16:16:18.779Z,7.54
2018-03-23T16:18:47.241Z,7.47
2018-03-23T16:21:15.672Z,7.32
2018-03-23T16:23:45.761Z,7.34
2018-03-23T16:26:14.209Z,7.40
2018-03-23T16:28:44.889Z,7.45
2018-03-23T16:31:13.368Z,7.29
2018-03-23T16:33:41.872Z,7.35
2018-03-23T16:36:10.416Z,7.28
2018-03-23T16:38:38.914Z,7.20
2018-03-23T16:41:07.422Z,7.11
2018-03-23T16:43:39.387Z,7.10
2018-03-23T16:46:07.901Z,7.04
2018-03-23T16:48:36.334Z,7.07
2018-03-23T16:51:08.420Z,7.03
2018-03-23T16:53:36.897Z,7.09
2018-03-23T16:56:06.993Z,7.02
2018-03-23T16:58:36.361Z,7.02
2018-03-23T17:01:08.566Z,7.01
2018-03-23T17:03:39.148Z,6.91
2018-03-23T17:06:07.654Z,6.88
2018-03-23T17:08:36.077Z,6.78
2018-03-23T17:11:06.561Z,6.78
2018-03-23T17:13:39.131Z,6.77
2018-03-23T17:16:07.581Z,6.74
2018-03-23T17:18:36.015Z,6.68
2018-03-23T17:21:06.565Z,6.73
2018-03-23T17:23:34.976Z,6.63
2018-03-23T17:26:03.449Z,6.61
2018-03-23T17:28:31.934Z,6.58
2018-03-23T17:31:00.430Z,6.50
2018-03-23T17:33:28.892Z,6.45
2018-03-23T17:36:01.437Z,6.47
2018-03-23T17:38:32.034Z,6.48
2018-03-23T17:41:00.557Z,6.43
2018-03-23T17:43:29.178Z,6.42
2018-03-23T17:45:56.577Z,6.42
2018-03-23T17:48:26.633Z,6.39
2018-03-23T17:50:56.426Z,6.35
2018-03-23T17:53:26.465Z,6.32
2018-03-23T17:55:56.361Z,6.30
2018-03-23T17:58:24.864Z,6.25
2018-03-23T18:00:53.329Z,6.16
2018-03-23T18:03:21.825Z,6.15
2018-03-23T18:05:56.045Z,6.12
2018-03-23T18:08:24.500Z,6.12
2018-03-23T18:10:52.983Z,6.15
2018-03-23T18:13:21.468Z,6.10
2018-03-23T18:15:49.900Z,6.04
2018-03-23T18:18:18.388Z,6.06
2018-03-23T18:20:48.868Z,5.91
2018-03-23T18:23:18.932Z,6.12
2018-03-23T18:25:47.367Z,6.01
2018-03-23T18:28:17.300Z,5.76
2018-03-23T18:30:45.809Z,5.60
2018-03-23T18:33:16.282Z,5.31
2018-03-23T18:35:44.753Z,5.15
2018-03-23T18:38:12.343Z,5.10
2018-03-23T18:40:42.412Z,5.21
2018-03-23T18:43:13.025Z,5.16
2018-03-23T18:45:41.460Z,5.14
2018-03-23T18:48:09.945Z,5.43
2018-03-23T18:50:38.425Z,5.21
2018-03-23T18:53:06.921Z,5.27
2018-03-23T18:55:35.398Z,5.42
2018-03-23T18:58:03.885Z,5.51
2018-03-23T19:00:32.405Z,5.23
2018-03-23T19:03:00.841Z,5.08
2018-03-23T19:05:29.343Z,5.08
2018-03-23T19:07:59.382Z,5.09
2018-03-23T19:10:27.885Z,5.20
2018-03-23T19:12:58.193Z,5.30
2018-03-23T19:15:28.541Z,5.10
2018-03-23T19:17:56.930Z,4.97
2018-03-23T19:20:25.361Z,4.92
2018-03-23T19:22:53.899Z,4.98
2018-03-23T19:25:24.578Z,4.91
2018-03-23T19:27:57.094Z,4.70
2018-03-23T19:30:25.576Z,4.65
2018-03-23T19:32:54.053Z,4.68
2018-03-23T19:35:22.534Z,4.57
2018-03-23T19:37:52.759Z,4.72
2018-03-23T19:40:22.892Z,4.56
2018-03-23T19:42:51.355Z,4.30
2018-03-23T19:45:21.612Z,4.58
2018-03-23T19:47:51.726Z,4.48
2018-03-23T19:50:20.210Z,4.17
2018-03-23T19:52:48.691Z,3.90
2018-03-23T19:55:17.201Z,3.69
2018-03-23T19:57:47.577Z,3.44
2018-03-23T20:00:16.062Z,3.38
2018-03-23T20:02:44.617Z,3.20
2018-03-23T20:05:15.125Z,3.10
2018-03-23T20:07:43.656Z,2.98
2018-03-23T20:10:12.182Z,2.93
2018-03-23T20:12:42.592Z,2.90
2018-03-23T20:15:12.027Z,2.90
2018-03-23T20:17:46.633Z,2.91
2018-03-23T20:20:21.199Z,2.82
2018-03-23T20:22:52.090Z,2.98
2018-03-23T20:25:20.561Z,3.07
2018-03-23T20:27:55.213Z,2.95
2018-03-23T20:30:23.666Z,2.83
2018-03-23T20:32:52.155Z,2.90
2018-03-23T20:35:22.812Z,3.01
2018-03-23T20:37:51.281Z,2.92
2018-03-23T20:40:19.775Z,3.06
2018-03-23T20:42:48.211Z,3.16
2018-03-23T20:45:16.721Z,2.97
2018-03-23T20:47:49.363Z,2.83
2018-03-23T20:50:17.864Z,2.64
2018-03-23T20:52:46.352Z,2.80
2018-03-23T20:55:16.906Z,2.62
2018-03-23T20:57:47.324Z,2.41
2018-03-23T21:00:15.773Z,2.41
2018-03-23T21:02:46.243Z,2.47
2018-03-23T21:05:16.579Z,2.36
2018-03-23T21:07:45.126Z,2.29
2018-03-23T21:10:15.554Z,2.25
2018-03-23T21:12:47.621Z,2.21
2018-03-23T21:15:16.066Z,2.10
2018-03-23T21:17:46.535Z,2.11
2018-03-23T21:20:15.008Z,2.11
2018-03-23T21:22:43.465Z,2.07
2018-03-23T21:25:14.053Z,2.09
2018-03-23T21:27:42.546Z,1.93
2018-03-23T21:30:12.806Z,1.71
2018-03-23T21:32:41.258Z,1.73
2018-03-23T21:35:13.982Z,1.80
2018-03-23T21:37:42.595Z,1.75
2018-03-23T21:40:11.046Z,1.66
2018-03-23T21:42:41.750Z,1.77
2018-03-23T21:45:15.722Z,1.81
2018-03-23T21:47:44.218Z,1.75
2018-03-23T21:50:12.606Z,1.65
2018-03-23T21:52:42.625Z,1.53
2018-03-23T21:55:15.114Z,1.48
2018-03-23T21:57:45.657Z,1.33
2018-03-23T22:00:14.718Z,1.47
2018-03-23T22:02:43.179Z,1.48
2018-03-23T22:05:11.662Z,1.44
2018-03-23T22:07:40.078Z,1.37
2018-03-23T22:10:12.415Z,1.36
2018-03-23T22:12:43.850Z,1.52
2018-03-23T22:15:12.339Z,1.63
2018-03-23T22:17:40.808Z,1.68
2018-03-23T22:20:10.957Z,1.59
2018-03-23T22:22:39.413Z,1.40
2018-03-23T22:25:07.861Z,1.56
2018-03-23T22:27:42.435Z,1.39
2018-03-23T22:30:10.857Z,1.68
2018-03-23T22:32:41.067Z,1.69
2018-03-23T22:35:12.005Z,1.55
2018-03-23T22:37:42.397Z,1.54
2018-03-23T22:40:10.849Z,1.56
2018-03-23T22:42:39.289Z,1.60
2018-03-23T22:45:07.818Z,1.63
2018-03-23T22:47:36.234Z,1.54
2018-03-23T22:50:06.213Z,1.63
2018-03-23T22:52:34.668Z,1.64
2018-03-23T22:55:03.165Z,1.68
2018-03-23T22:57:31.612Z,1.61
2018-03-23T23:00:00.057Z,1.60
2018-03-23T23:02:28.592Z,1.55
2018-03-23T23:04:57.025Z,1.33
2018-03-23T23:07:27.594Z,1.38
2018-03-23T23:09:56.049Z,1.57
2018-03-23T23:12:24.489Z,1.61
2018-03-23T23:14:55.011Z,1.50
2018-03-23T23:17:23.615Z,1.64
2018-03-23T23:19:53.684Z,1.50
2018-03-23T23:22:22.273Z,1.35
2018-03-23T23:24:52.302Z,1.49
2018-03-23T23:27:23.635Z,1.54
2018-03-23T23:29:52.074Z,1.64
2018-03-23T23:32:20.581Z,1.58
2018-03-23T23:34:51.168Z,1.54
2018-03-23T23:37:19.906Z,1.64
2018-03-23T23:39:48.306Z,1.83
2018-03-23T23:42:16.765Z,1.68
2018-03-23T23:44:45.246Z,1.79
2018-03-23T23:47:15.876Z,1.77
2018-03-23T23:49:44.273Z,1.62
2018-03-23T23:52:12.798Z,1.71
2018-03-23T23:54:41.196Z,1.59
2018-03-23T23:57:11.762Z,1.53
2018-03-23T23:59:42.032Z,1.54
